sensor_id;sensor_type;location;lat;lon;timestamp;P1;durP1;ratioP1;P2;durP2;ratioP2
38865;SDS011;62686;48.984;8.394;2022-09-09T00:01:22;4.75;;;2.05;;
38865;SDS011;62686;48.984;8.394;2022-09-09T00:04:05;6.72;;;1.85;;
38865;SDS011;62686;48.984;8.394;2022-09-09T00:06:46;6.18;;;1.67;;
38865;SDS011;62686;48.984;8.394;2022-09-09T00:09:29;6.60;;;1.65;;
38865;SDS011;62686;48.984;8.394;2022-09-09T00:12:01;3.55;;;1.50;;
38865;SDS011;62686;48.984;8.394;2022-09-09T00:14:37;3.60;;;1.85;;
38865;SDS011;62686;48.984;8.394;2022-09-09T00:17:12;5.45;;;1.40;;
38865;SDS011;62686;48.984;8.394;2022-09-09T00:19:50;3.75;;;1.42;;
38865;SDS011;62686;48.984;8.394;2022-09-09T00:22:27;4.63;;;1.50;;
38865;SDS011;62686;48.984;8.394;2022-09-09T00:25:01;4.45;;;1.40;;
38865;SDS011;62686;48.984;8.394;2022-09-09T00:27:39;7.28;;;1.52;;
38865;SDS011;62686;48.984;8.394;2022-09-09T00:30:16;6.80;;;1.77;;
38865;SDS011;62686;48.984;8.394;2022-09-09T00:32:49;6.88;;;1.52;;
38865;SDS011;62686;48.984;8.394;2022-09-09T00:35:26;2.58;;;1.08;;
38865;SDS011;62686;48.984;8.394;2022-09-09T00:38:00;5.57;;;1.42;;
38865;SDS011;62686;48.984;8.394;2022-09-09T00:40:35;5.32;;;1.58;;
38865;SDS011;62686;48.984;8.394;2022-09-09T00:43:12;5.13;;;1.45;;
38865;SDS011;62686;48.984;8.394;2022-09-09T00:49:08;4.53;;;1.60;;
38865;SDS011;62686;48.984;8.394;2022-09-09T00:51:48;4.55;;;1.40;;
38865;SDS011;62686;48.984;8.394;2022-09-09T00:54:28;4.20;;;1.80;;
38865;SDS011;62686;48.984;8.394;2022-09-09T00:57:12;3.80;;;1.77;;
38865;SDS011;62686;48.984;8.394;2022-09-09T00:59:51;3.75;;;1.95;;
38865;SDS011;62686;48.984;8.394;2022-09-09T01:02:28;3.38;;;1.80;;
38865;SDS011;62686;48.984;8.394;2022-09-09T01:05:05;6.53;;;1.80;;
38865;SDS011;62686;48.984;8.394;2022-09-09T01:07:44;4.35;;;1.67;;
38865;SDS011;62686;48.984;8.394;2022-09-09T01:10:23;5.30;;;1.77;;
38865;SDS011;62686;48.984;8.394;2022-09-09T01:13:00;8.93;;;1.88;;
38865;SDS011;62686;48.984;8.394;2022-09-09T01:15:37;7.30;;;1.75;;
38865;SDS011;62686;48.984;8.394;2022-09-09T01:18:10;5.53;;;1.55;;
38865;SDS011;62686;48.984;8.394;2022-09-09T01:20:44;3.95;;;1.38;;
38865;SDS011;62686;48.984;8.394;2022-09-09T01:26:25;4.20;;;1.20;;
38865;SDS011;62686;48.984;8.394;2022-09-09T01:28:57;6.35;;;1.35;;
38865;SDS011;62686;48.984;8.394;2022-09-09T01:31:27;6.93;;;1.60;;
38865;SDS011;62686;48.984;8.394;2022-09-09T01:33:59;2.63;;;1.20;;
38865;SDS011;62686;48.984;8.394;2022-09-09T01:36:29;8.00;;;1.65;;
38865;SDS011;62686;48.984;8.394;2022-09-09T01:39:02;10.13;;;1.92;;
38865;SDS011;62686;48.984;8.394;2022-09-09T01:41:33;5.18;;;1.67;;
38865;SDS011;62686;48.984;8.394;2022-09-09T01:44:02;7.07;;;1.70;;
38865;SDS011;62686;48.984;8.394;2022-09-09T01:46:33;6.80;;;1.48;;
38865;SDS011;62686;48.984;8.394;2022-09-09T01:49:02;5.93;;;1.50;;
38865;SDS011;62686;48.984;8.394;2022-09-09T01:51:34;4.55;;;1.35;;
38865;SDS011;62686;48.984;8.394;2022-09-09T01:54:06;7.57;;;1.98;;
38865;SDS011;62686;48.984;8.394;2022-09-09T01:56:42;4.32;;;1.70;;
38865;SDS011;62686;48.984;8.394;2022-09-09T01:59:24;7.28;;;1.80;;
38865;SDS011;62686;48.984;8.394;2022-09-09T02:02:11;6.50;;;1.70;;
38865;SDS011;62686;48.984;8.394;2022-09-09T02:05:05;7.05;;;1.80;;
38865;SDS011;62686;48.984;8.394;2022-09-09T02:07:46;2.35;;;1.33;;
38865;SDS011;62686;48.984;8.394;2022-09-09T02:10:19;2.83;;;1.27;;
38865;SDS011;62686;48.984;8.394;2022-09-09T02:12:51;6.53;;;1.48;;
38865;SDS011;62686;48.984;8.394;2022-09-09T02:15:33;3.17;;;1.50;;
38865;SDS011;62686;48.984;8.394;2022-09-09T02:18:06;4.45;;;1.10;;
38865;SDS011;62686;48.984;8.394;2022-09-09T02:20:37;3.60;;;1.40;;
38865;SDS011;62686;48.984;8.394;2022-09-09T02:23:07;4.28;;;1.15;;
38865;SDS011;62686;48.984;8.394;2022-09-09T02:25:38;2.88;;;1.23;;
38865;SDS011;62686;48.984;8.394;2022-09-09T02:28:11;3.97;;;1.30;;
38865;SDS011;62686;48.984;8.394;2022-09-09T02:30:41;2.33;;;1.23;;
38865;SDS011;62686;48.984;8.394;2022-09-09T02:33:13;3.97;;;1.27;;
38865;SDS011;62686;48.984;8.394;2022-09-09T02:35:42;4.13;;;1.20;;
38865;SDS011;62686;48.984;8.394;2022-09-09T02:38:13;3.53;;;1.23;;
38865;SDS011;62686;48.984;8.394;2022-09-09T02:40:43;3.45;;;1.13;;
38865;SDS011;62686;48.984;8.394;2022-09-09T02:43:15;2.25;;;1.20;;
38865;SDS011;62686;48.984;8.394;2022-09-09T02:45:47;5.00;;;1.33;;
38865;SDS011;62686;48.984;8.394;2022-09-09T02:48:25;3.08;;;1.20;;
38865;SDS011;62686;48.984;8.394;2022-09-09T02:51:00;4.20;;;1.40;;
38865;SDS011;62686;48.984;8.394;2022-09-09T02:53:39;3.78;;;1.27;;
38865;SDS011;62686;48.984;8.394;2022-09-09T02:56:19;4.18;;;1.17;;
38865;SDS011;62686;48.984;8.394;2022-09-09T02:58:54;4.93;;;1.30;;
38865;SDS011;62686;48.984;8.394;2022-09-09T03:01:22;4.55;;;1.20;;
38865;SDS011;62686;48.984;8.394;2022-09-09T03:03:53;3.27;;;1.27;;
38865;SDS011;62686;48.984;8.394;2022-09-09T03:06:24;4.30;;;1.50;;
38865;SDS011;62686;48.984;8.394;2022-09-09T03:08:56;5.55;;;1.70;;
38865;SDS011;62686;48.984;8.394;2022-09-09T03:11:26;6.17;;;1.57;;
38865;SDS011;62686;48.984;8.394;2022-09-09T03:13:56;3.93;;;1.50;;
38865;SDS011;62686;48.984;8.394;2022-09-09T03:16:25;3.63;;;1.40;;
38865;SDS011;62686;48.984;8.394;2022-09-09T03:18:53;4.97;;;1.67;;
38865;SDS011;62686;48.984;8.394;2022-09-09T03:21:23;5.53;;;1.45;;
38865;SDS011;62686;48.984;8.394;2022-09-09T03:23:52;5.82;;;1.27;;
38865;SDS011;62686;48.984;8.394;2022-09-09T03:26:23;4.78;;;1.40;;
38865;SDS011;62686;48.984;8.394;2022-09-09T03:28:51;4.33;;;1.60;;
38865;SDS011;62686;48.984;8.394;2022-09-09T03:31:27;3.63;;;1.30;;
38865;SDS011;62686;48.984;8.394;2022-09-09T03:33:58;3.20;;;1.30;;
38865;SDS011;62686;48.984;8.394;2022-09-09T03:36:27;4.83;;;1.53;;
38865;SDS011;62686;48.984;8.394;2022-09-09T03:39:00;2.73;;;1.30;;
38865;SDS011;62686;48.984;8.394;2022-09-09T03:41:29;4.50;;;1.55;;
38865;SDS011;62686;48.984;8.394;2022-09-09T03:44:03;2.80;;;1.53;;
38865;SDS011;62686;48.984;8.394;2022-09-09T03:46:35;3.83;;;1.30;;
38865;SDS011;62686;48.984;8.394;2022-09-09T03:49:10;3.30;;;1.27;;
38865;SDS011;62686;48.984;8.394;2022-09-09T03:51:41;4.53;;;1.57;;
38865;SDS011;62686;48.984;8.394;2022-09-09T03:54:12;4.47;;;1.50;;
38865;SDS011;62686;48.984;8.394;2022-09-09T03:56:44;4.97;;;1.40;;
38865;SDS011;62686;48.984;8.394;2022-09-09T03:59:12;3.90;;;1.70;;
38865;SDS011;62686;48.984;8.394;2022-09-09T04:01:42;2.77;;;1.47;;
38865;SDS011;62686;48.984;8.394;2022-09-09T04:04:13;5.67;;;1.70;;
38865;SDS011;62686;48.984;8.394;2022-09-09T04:06:46;4.40;;;1.80;;
38865;SDS011;62686;48.984;8.394;2022-09-09T04:09:17;2.83;;;1.70;;
38865;SDS011;62686;48.984;8.394;2022-09-09T04:11:45;4.30;;;1.53;;
38865;SDS011;62686;48.984;8.394;2022-09-09T04:14:17;4.35;;;1.70;;
38865;SDS011;62686;48.984;8.394;2022-09-09T04:16:46;2.13;;;1.57;;
38865;SDS011;62686;48.984;8.394;2022-09-09T04:19:15;6.23;;;1.63;;
38865;SDS011;62686;48.984;8.394;2022-09-09T04:21:46;3.22;;;1.85;;
38865;SDS011;62686;48.984;8.394;2022-09-09T04:24:18;3.50;;;1.90;;
38865;SDS011;62686;48.984;8.394;2022-09-09T04:26:48;6.13;;;2.00;;
38865;SDS011;62686;48.984;8.394;2022-09-09T04:29:17;3.58;;;1.92;;
38865;SDS011;62686;48.984;8.394;2022-09-09T04:31:48;2.55;;;1.80;;
38865;SDS011;62686;48.984;8.394;2022-09-09T04:34:18;6.18;;;2.00;;
38865;SDS011;62686;48.984;8.394;2022-09-09T04:36:46;5.03;;;1.70;;
38865;SDS011;62686;48.984;8.394;2022-09-09T04:39:14;7.45;;;1.77;;
38865;SDS011;62686;48.984;8.394;2022-09-09T04:41:42;3.53;;;1.42;;
38865;SDS011;62686;48.984;8.394;2022-09-09T04:44:11;4.03;;;1.67;;
38865;SDS011;62686;48.984;8.394;2022-09-09T04:46:39;4.93;;;1.83;;
38865;SDS011;62686;48.984;8.394;2022-09-09T04:49:09;4.75;;;1.42;;
38865;SDS011;62686;48.984;8.394;2022-09-09T04:51:40;4.82;;;1.75;;
38865;SDS011;62686;48.984;8.394;2022-09-09T04:54:09;4.80;;;1.60;;
38865;SDS011;62686;48.984;8.394;2022-09-09T04:56:38;6.80;;;1.85;;
38865;SDS011;62686;48.984;8.394;2022-09-09T04:59:06;4.45;;;1.40;;
38865;SDS011;62686;48.984;8.394;2022-09-09T05:01:34;7.13;;;1.67;;
38865;SDS011;62686;48.984;8.394;2022-09-09T05:04:03;8.68;;;1.50;;
38865;SDS011;62686;48.984;8.394;2022-09-09T05:06:32;4.13;;;1.63;;
38865;SDS011;62686;48.984;8.394;2022-09-09T05:09:02;3.58;;;1.40;;
38865;SDS011;62686;48.984;8.394;2022-09-09T05:11:31;4.15;;;1.40;;
38865;SDS011;62686;48.984;8.394;2022-09-09T05:14:02;1.85;;;0.98;;
38865;SDS011;62686;48.984;8.394;2022-09-09T05:16:31;4.85;;;1.33;;
38865;SDS011;62686;48.984;8.394;2022-09-09T05:18:59;4.18;;;1.42;;
38865;SDS011;62686;48.984;8.394;2022-09-09T05:21:29;6.55;;;1.60;;
38865;SDS011;62686;48.984;8.394;2022-09-09T05:23:59;2.38;;;1.25;;
38865;SDS011;62686;48.984;8.394;2022-09-09T05:26:27;4.40;;;1.20;;
38865;SDS011;62686;48.984;8.394;2022-09-09T05:28:55;4.20;;;1.52;;
38865;SDS011;62686;48.984;8.394;2022-09-09T05:31:25;2.78;;;1.33;;
38865;SDS011;62686;48.984;8.394;2022-09-09T05:33:54;3.47;;;1.05;;
38865;SDS011;62686;48.984;8.394;2022-09-09T05:36:22;3.20;;;1.27;;
38865;SDS011;62686;48.984;8.394;2022-09-09T05:38:51;4.03;;;1.40;;
38865;SDS011;62686;48.984;8.394;2022-09-09T05:41:21;3.00;;;1.17;;
38865;SDS011;62686;48.984;8.394;2022-09-09T05:43:50;5.75;;;1.40;;
38865;SDS011;62686;48.984;8.394;2022-09-09T05:46:19;4.60;;;1.48;;
38865;SDS011;62686;48.984;8.394;2022-09-09T05:48:48;1.80;;;1.25;;
38865;SDS011;62686;48.984;8.394;2022-09-09T05:51:19;3.80;;;1.30;;
38865;SDS011;62686;48.984;8.394;2022-09-09T05:53:48;3.47;;;1.17;;
38865;SDS011;62686;48.984;8.394;2022-09-09T05:56:19;6.00;;;1.40;;
38865;SDS011;62686;48.984;8.394;2022-09-09T05:58:50;1.75;;;1.08;;
38865;SDS011;62686;48.984;8.394;2022-09-09T06:01:20;2.90;;;1.10;;
38865;SDS011;62686;48.984;8.394;2022-09-09T06:03:50;3.17;;;1.20;;
38865;SDS011;62686;48.984;8.394;2022-09-09T06:06:19;2.13;;;1.20;;
38865;SDS011;62686;48.984;8.394;2022-09-09T06:08:50;3.28;;;1.25;;
38865;SDS011;62686;48.984;8.394;2022-09-09T06:11:20;4.38;;;1.20;;
38865;SDS011;62686;48.984;8.394;2022-09-09T06:13:50;2.40;;;1.17;;
38865;SDS011;62686;48.984;8.394;2022-09-09T06:16:21;3.83;;;1.38;;
38865;SDS011;62686;48.984;8.394;2022-09-09T06:18:51;2.50;;;1.45;;
38865;SDS011;62686;48.984;8.394;2022-09-09T06:21:21;2.50;;;1.25;;
38865;SDS011;62686;48.984;8.394;2022-09-09T06:23:51;6.57;;;1.40;;
38865;SDS011;62686;48.984;8.394;2022-09-09T06:26:21;5.82;;;1.20;;
38865;SDS011;62686;48.984;8.394;2022-09-09T06:28:53;2.63;;;1.27;;
38865;SDS011;62686;48.984;8.394;2022-09-09T06:31:24;2.78;;;1.15;;
38865;SDS011;62686;48.984;8.394;2022-09-09T06:33:56;3.53;;;1.45;;
38865;SDS011;62686;48.984;8.394;2022-09-09T06:36:26;3.75;;;1.10;;
38865;SDS011;62686;48.984;8.394;2022-09-09T06:38:55;3.75;;;1.02;;
38865;SDS011;62686;48.984;8.394;2022-09-09T06:41:24;3.92;;;1.20;;
38865;SDS011;62686;48.984;8.394;2022-09-09T06:43:55;4.05;;;1.27;;
38865;SDS011;62686;48.984;8.394;2022-09-09T06:46:24;2.92;;;1.10;;
38865;SDS011;62686;48.984;8.394;2022-09-09T06:48:54;5.00;;;1.45;;
38865;SDS011;62686;48.984;8.394;2022-09-09T06:51:26;2.15;;;0.90;;
38865;SDS011;62686;48.984;8.394;2022-09-09T06:53:56;4.60;;;1.20;;
38865;SDS011;62686;48.984;8.394;2022-09-09T06:56:26;3.15;;;1.42;;
38865;SDS011;62686;48.984;8.394;2022-09-09T06:58:56;2.78;;;1.05;;
38865;SDS011;62686;48.984;8.394;2022-09-09T07:01:27;2.63;;;0.90;;
38865;SDS011;62686;48.984;8.394;2022-09-09T07:03:58;2.58;;;0.82;;
38865;SDS011;62686;48.984;8.394;2022-09-09T07:06:27;2.90;;;0.80;;
38865;SDS011;62686;48.984;8.394;2022-09-09T07:08:58;2.78;;;0.95;;
38865;SDS011;62686;48.984;8.394;2022-09-09T07:11:28;4.68;;;1.25;;
38865;SDS011;62686;48.984;8.394;2022-09-09T07:13:59;5.03;;;1.20;;
38865;SDS011;62686;48.984;8.394;2022-09-09T07:16:28;3.38;;;1.33;;
38865;SDS011;62686;48.984;8.394;2022-09-09T07:18:58;6.43;;;1.20;;
38865;SDS011;62686;48.984;8.394;2022-09-09T07:21:27;3.70;;;1.40;;
38865;SDS011;62686;48.984;8.394;2022-09-09T07:23:56;2.83;;;1.20;;
38865;SDS011;62686;48.984;8.394;2022-09-09T07:26:25;2.75;;;0.90;;
38865;SDS011;62686;48.984;8.394;2022-09-09T07:28:55;4.70;;;1.33;;
38865;SDS011;62686;48.984;8.394;2022-09-09T07:31:26;4.82;;;1.20;;
38865;SDS011;62686;48.984;8.394;2022-09-09T07:33:57;3.20;;;1.38;;
38865;SDS011;62686;48.984;8.394;2022-09-09T07:36:26;4.00;;;1.20;;
38865;SDS011;62686;48.984;8.394;2022-09-09T07:38:59;3.38;;;1.13;;
38865;SDS011;62686;48.984;8.394;2022-09-09T07:41:29;2.97;;;1.15;;
38865;SDS011;62686;48.984;8.394;2022-09-09T07:44:03;3.05;;;0.90;;
38865;SDS011;62686;48.984;8.394;2022-09-09T07:46:34;2.80;;;1.02;;
38865;SDS011;62686;48.984;8.394;2022-09-09T07:49:02;4.10;;;1.20;;
38865;SDS011;62686;48.984;8.394;2022-09-09T07:51:31;2.38;;;1.00;;
38865;SDS011;62686;48.984;8.394;2022-09-09T07:54:02;6.35;;;1.30;;
38865;SDS011;62686;48.984;8.394;2022-09-09T07:56:32;3.15;;;0.80;;
38865;SDS011;62686;48.984;8.394;2022-09-09T07:59:01;2.85;;;1.00;;
38865;SDS011;62686;48.984;8.394;2022-09-09T08:01:31;3.25;;;1.13;;
38865;SDS011;62686;48.984;8.394;2022-09-09T08:04:05;7.13;;;1.00;;
38865;SDS011;62686;48.984;8.394;2022-09-09T08:06:35;1.52;;;0.93;;
38865;SDS011;62686;48.984;8.394;2022-09-09T08:09:05;3.20;;;1.20;;
38865;SDS011;62686;48.984;8.394;2022-09-09T08:11:35;2.88;;;1.10;;
38865;SDS011;62686;48.984;8.394;2022-09-09T08:14:04;4.50;;;1.20;;
38865;SDS011;62686;48.984;8.394;2022-09-09T08:16:35;2.88;;;1.10;;
38865;SDS011;62686;48.984;8.394;2022-09-09T08:19:04;3.47;;;1.23;;
38865;SDS011;62686;48.984;8.394;2022-09-09T08:21:35;3.78;;;1.10;;
38865;SDS011;62686;48.984;8.394;2022-09-09T08:24:05;2.83;;;1.13;;
38865;SDS011;62686;48.984;8.394;2022-09-09T08:26:35;2.30;;;1.27;;
38865;SDS011;62686;48.984;8.394;2022-09-09T08:29:05;3.28;;;1.20;;
38865;SDS011;62686;48.984;8.394;2022-09-09T08:31:36;2.72;;;1.10;;
38865;SDS011;62686;48.984;8.394;2022-09-09T08:34:06;5.10;;;1.30;;
38865;SDS011;62686;48.984;8.394;2022-09-09T08:36:37;6.50;;;1.23;;
38865;SDS011;62686;48.984;8.394;2022-09-09T08:39:07;4.68;;;1.33;;
38865;SDS011;62686;48.984;8.394;2022-09-09T08:44:43;2.90;;;1.15;;
38865;SDS011;62686;48.984;8.394;2022-09-09T08:47:30;3.88;;;1.42;;
38865;SDS011;62686;48.984;8.394;2022-09-09T08:50:06;2.47;;;1.13;;
38865;SDS011;62686;48.984;8.394;2022-09-09T08:52:46;2.95;;;1.13;;
38865;SDS011;62686;48.984;8.394;2022-09-09T08:55:21;3.80;;;1.52;;
38865;SDS011;62686;48.984;8.394;2022-09-09T08:57:57;3.63;;;1.23;;
38865;SDS011;62686;48.984;8.394;2022-09-09T09:00:30;5.55;;;1.20;;
38865;SDS011;62686;48.984;8.394;2022-09-09T09:03:13;2.55;;;1.17;;
38865;SDS011;62686;48.984;8.394;2022-09-09T09:05:47;4.78;;;1.42;;
38865;SDS011;62686;48.984;8.394;2022-09-09T09:08:25;3.50;;;1.25;;
38865;SDS011;62686;48.984;8.394;2022-09-09T09:10:58;4.32;;;1.30;;
38865;SDS011;62686;48.984;8.394;2022-09-09T09:13:30;3.03;;;1.33;;
38865;SDS011;62686;48.984;8.394;2022-09-09T09:16:06;7.80;;;1.80;;
38865;SDS011;62686;48.984;8.394;2022-09-09T09:18:46;6.18;;;1.40;;
38865;SDS011;62686;48.984;8.394;2022-09-09T09:21:15;3.45;;;1.33;;
38865;SDS011;62686;48.984;8.394;2022-09-09T09:23:48;5.05;;;1.60;;
38865;SDS011;62686;48.984;8.394;2022-09-09T09:26:23;4.63;;;1.20;;
38865;SDS011;62686;48.984;8.394;2022-09-09T09:28:56;2.97;;;1.00;;
38865;SDS011;62686;48.984;8.394;2022-09-09T09:31:26;7.43;;;1.52;;
38865;SDS011;62686;48.984;8.394;2022-09-09T09:33:56;3.13;;;0.95;;
38865;SDS011;62686;48.984;8.394;2022-09-09T09:36:32;5.35;;;1.23;;
38865;SDS011;62686;48.984;8.394;2022-09-09T09:39:02;3.97;;;1.00;;
38865;SDS011;62686;48.984;8.394;2022-09-09T09:41:51;1.77;;;1.00;;
38865;SDS011;62686;48.984;8.394;2022-09-09T09:44:24;3.55;;;1.20;;
38865;SDS011;62686;48.984;8.394;2022-09-09T09:47:04;4.47;;;1.10;;
38865;SDS011;62686;48.984;8.394;2022-09-09T09:49:35;4.22;;;1.10;;
38865;SDS011;62686;48.984;8.394;2022-09-09T09:52:04;3.17;;;0.98;;
38865;SDS011;62686;48.984;8.394;2022-09-09T09:54:33;1.88;;;1.05;;
38865;SDS011;62686;48.984;8.394;2022-09-09T09:57:09;3.08;;;1.10;;
38865;SDS011;62686;48.984;8.394;2022-09-09T09:59:38;5.03;;;1.27;;
38865;SDS011;62686;48.984;8.394;2022-09-09T10:02:13;4.55;;;1.23;;
38865;SDS011;62686;48.984;8.394;2022-09-09T10:04:45;3.00;;;1.00;;
38865;SDS011;62686;48.984;8.394;2022-09-09T10:07:17;2.88;;;1.08;;
38865;SDS011;62686;48.984;8.394;2022-09-09T10:09:47;5.20;;;1.27;;
38865;SDS011;62686;48.984;8.394;2022-09-09T10:12:22;2.72;;;1.27;;
38865;SDS011;62686;48.984;8.394;2022-09-09T10:15:00;4.18;;;1.13;;
38865;SDS011;62686;48.984;8.394;2022-09-09T10:17:34;2.92;;;1.13;;
38865;SDS011;62686;48.984;8.394;2022-09-09T10:20:15;3.53;;;1.52;;
38865;SDS011;62686;48.984;8.394;2022-09-09T10:22:51;2.90;;;0.93;;
38865;SDS011;62686;48.984;8.394;2022-09-09T10:25:31;3.45;;;1.27;;
38865;SDS011;62686;48.984;8.394;2022-09-09T10:28:20;4.70;;;1.30;;
38865;SDS011;62686;48.984;8.394;2022-09-09T10:31:01;3.33;;;1.35;;
38865;SDS011;62686;48.984;8.394;2022-09-09T10:33:39;3.80;;;1.30;;
38865;SDS011;62686;48.984;8.394;2022-09-09T10:36:18;4.68;;;1.30;;
38865;SDS011;62686;48.984;8.394;2022-09-09T10:38:51;3.55;;;1.30;;
38865;SDS011;62686;48.984;8.394;2022-09-09T10:41:30;7.20;;;1.40;;
38865;SDS011;62686;48.984;8.394;2022-09-09T10:44:16;3.80;;;1.38;;
38865;SDS011;62686;48.984;8.394;2022-09-09T10:46:57;4.65;;;1.35;;
38865;SDS011;62686;48.984;8.394;2022-09-09T10:49:52;4.95;;;1.42;;
38865;SDS011;62686;48.984;8.394;2022-09-09T10:52:36;1.70;;;0.98;;
38865;SDS011;62686;48.984;8.394;2022-09-09T10:55:14;3.80;;;1.40;;
38865;SDS011;62686;48.984;8.394;2022-09-09T10:57:46;4.25;;;1.02;;
38865;SDS011;62686;48.984;8.394;2022-09-09T11:00:17;4.65;;;1.48;;
38865;SDS011;62686;48.984;8.394;2022-09-09T11:02:49;4.45;;;1.20;;
38865;SDS011;62686;48.984;8.394;2022-09-09T11:05:20;3.20;;;1.20;;
38865;SDS011;62686;48.984;8.394;2022-09-09T11:07:57;5.15;;;1.20;;
38865;SDS011;62686;48.984;8.394;2022-09-09T11:10:29;2.88;;;0.93;;
38865;SDS011;62686;48.984;8.394;2022-09-09T11:13:08;2.97;;;1.02;;
38865;SDS011;62686;48.984;8.394;2022-09-09T11:15:39;3.17;;;1.20;;
38865;SDS011;62686;48.984;8.394;2022-09-09T11:18:13;3.28;;;1.17;;
38865;SDS011;62686;48.984;8.394;2022-09-09T11:20:46;5.13;;;1.35;;
38865;SDS011;62686;48.984;8.394;2022-09-09T11:23:19;1.85;;;0.90;;
38865;SDS011;62686;48.984;8.394;2022-09-09T11:25:54;2.70;;;1.10;;
38865;SDS011;62686;48.984;8.394;2022-09-09T11:28:31;4.15;;;1.27;;
38865;SDS011;62686;48.984;8.394;2022-09-09T11:31:11;4.38;;;1.20;;
38865;SDS011;62686;48.984;8.394;2022-09-09T11:34:04;2.83;;;1.10;;
38865;SDS011;62686;48.984;8.394;2022-09-09T11:36:56;5.05;;;1.20;;
38865;SDS011;62686;48.984;8.394;2022-09-09T11:39:47;4.57;;;1.30;;
38865;SDS011;62686;48.984;8.394;2022-09-09T11:42:33;2.63;;;1.15;;
38865;SDS011;62686;48.984;8.394;2022-09-09T11:45:15;2.90;;;1.00;;
38865;SDS011;62686;48.984;8.394;2022-09-09T11:47:53;3.13;;;1.10;;
38865;SDS011;62686;48.984;8.394;2022-09-09T11:50:27;5.03;;;1.40;;
38865;SDS011;62686;48.984;8.394;2022-09-09T11:53:05;4.40;;;1.42;;
38865;SDS011;62686;48.984;8.394;2022-09-09T11:58:40;3.25;;;1.40;;
38865;SDS011;62686;48.984;8.394;2022-09-09T12:01:13;2.72;;;1.20;;
38865;SDS011;62686;48.984;8.394;2022-09-09T12:03:44;4.57;;;1.15;;
38865;SDS011;62686;48.984;8.394;2022-09-09T12:06:15;3.60;;;1.40;;
38865;SDS011;62686;48.984;8.394;2022-09-09T12:08:46;3.25;;;1.17;;
38865;SDS011;62686;48.984;8.394;2022-09-09T12:11:27;5.15;;;1.20;;
38865;SDS011;62686;48.984;8.394;2022-09-09T12:13:57;2.42;;;1.13;;
38865;SDS011;62686;48.984;8.394;2022-09-09T12:16:31;2.70;;;1.08;;
38865;SDS011;62686;48.984;8.394;2022-09-09T12:19:05;4.18;;;1.10;;
38865;SDS011;62686;48.984;8.394;2022-09-09T12:21:42;3.30;;;1.10;;
38865;SDS011;62686;48.984;8.394;2022-09-09T12:24:16;3.08;;;1.10;;
38865;SDS011;62686;48.984;8.394;2022-09-09T12:26:52;4.70;;;1.27;;
38865;SDS011;62686;48.984;8.394;2022-09-09T12:29:27;4.85;;;1.27;;
38865;SDS011;62686;48.984;8.394;2022-09-09T12:32:06;4.75;;;1.27;;
38865;SDS011;62686;48.984;8.394;2022-09-09T12:34:38;3.28;;;1.10;;
38865;SDS011;62686;48.984;8.394;2022-09-09T12:37:14;2.60;;;0.98;;
38865;SDS011;62686;48.984;8.394;2022-09-09T12:39:49;3.38;;;0.98;;
38865;SDS011;62686;48.984;8.394;2022-09-09T12:42:23;3.50;;;1.20;;
38865;SDS011;62686;48.984;8.394;2022-09-09T12:44:53;2.75;;;1.00;;
38865;SDS011;62686;48.984;8.394;2022-09-09T12:47:24;1.98;;;1.10;;
38865;SDS011;62686;48.984;8.394;2022-09-09T12:49:58;2.20;;;1.20;;
38865;SDS011;62686;48.984;8.394;2022-09-09T12:52:28;3.22;;;1.10;;
38865;SDS011;62686;48.984;8.394;2022-09-09T12:54:59;4.85;;;1.23;;
38865;SDS011;62686;48.984;8.394;2022-09-09T12:57:33;2.75;;;1.00;;
38865;SDS011;62686;48.984;8.394;2022-09-09T13:00:05;3.83;;;0.95;;
38865;SDS011;62686;48.984;8.394;2022-09-09T13:02:45;2.17;;;1.00;;
38865;SDS011;62686;48.984;8.394;2022-09-09T13:05:17;3.95;;;1.20;;
38865;SDS011;62686;48.984;8.394;2022-09-09T13:07:48;4.65;;;1.05;;
38865;SDS011;62686;48.984;8.394;2022-09-09T13:10:21;3.97;;;1.27;;
38865;SDS011;62686;48.984;8.394;2022-09-09T13:12:57;3.28;;;1.02;;
38865;SDS011;62686;48.984;8.394;2022-09-09T13:15:26;3.70;;;1.05;;
38865;SDS011;62686;48.984;8.394;2022-09-09T13:17:57;4.53;;;1.08;;
38865;SDS011;62686;48.984;8.394;2022-09-09T13:20:29;6.25;;;1.10;;
38865;SDS011;62686;48.984;8.394;2022-09-09T13:22:57;7.03;;;1.58;;
38865;SDS011;62686;48.984;8.394;2022-09-09T13:25:26;2.88;;;1.13;;
38865;SDS011;62686;48.984;8.394;2022-09-09T13:28:02;3.90;;;0.95;;
38865;SDS011;62686;48.984;8.394;2022-09-09T13:30:35;2.65;;;1.10;;
38865;SDS011;62686;48.984;8.394;2022-09-09T13:33:20;6.57;;;1.13;;
38865;SDS011;62686;48.984;8.394;2022-09-09T13:35:51;3.50;;;0.70;;
38865;SDS011;62686;48.984;8.394;2022-09-09T13:38:27;2.85;;;0.98;;
38865;SDS011;62686;48.984;8.394;2022-09-09T13:40:57;4.05;;;1.13;;
38865;SDS011;62686;48.984;8.394;2022-09-09T13:43:30;3.10;;;1.20;;
38865;SDS011;62686;48.984;8.394;2022-09-09T13:46:02;4.47;;;1.10;;
38865;SDS011;62686;48.984;8.394;2022-09-09T13:48:32;7.40;;;1.50;;
38865;SDS011;62686;48.984;8.394;2022-09-09T13:51:04;6.18;;;1.52;;
38865;SDS011;62686;48.984;8.394;2022-09-09T13:53:42;4.68;;;1.52;;
38865;SDS011;62686;48.984;8.394;2022-09-09T13:56:13;6.07;;;1.10;;
38865;SDS011;62686;48.984;8.394;2022-09-09T13:58:46;3.28;;;1.38;;
38865;SDS011;62686;48.984;8.394;2022-09-09T14:01:15;4.40;;;1.27;;
38865;SDS011;62686;48.984;8.394;2022-09-09T14:04:01;4.50;;;1.33;;
38865;SDS011;62686;48.984;8.394;2022-09-09T14:06:58;3.42;;;1.20;;
38865;SDS011;62686;48.984;8.394;2022-09-09T14:09:54;4.70;;;1.40;;
38865;SDS011;62686;48.984;8.394;2022-09-09T14:12:50;4.03;;;1.13;;
38865;SDS011;62686;48.984;8.394;2022-09-09T14:18:20;9.35;;;1.20;;
38865;SDS011;62686;48.984;8.394;2022-09-09T14:20:50;2.67;;;1.15;;
38865;SDS011;62686;48.984;8.394;2022-09-09T14:23:38;3.05;;;1.30;;
38865;SDS011;62686;48.984;8.394;2022-09-09T14:26:27;4.18;;;1.23;;
38865;SDS011;62686;48.984;8.394;2022-09-09T14:28:58;4.60;;;0.95;;
38865;SDS011;62686;48.984;8.394;2022-09-09T14:31:30;5.20;;;1.15;;
38865;SDS011;62686;48.984;8.394;2022-09-09T14:34:03;3.03;;;0.82;;
38865;SDS011;62686;48.984;8.394;2022-09-09T14:36:32;4.70;;;1.08;;
38865;SDS011;62686;48.984;8.394;2022-09-09T14:39:01;3.78;;;1.27;;
38865;SDS011;62686;48.984;8.394;2022-09-09T14:41:30;2.20;;;0.85;;
38865;SDS011;62686;48.984;8.394;2022-09-09T14:43:59;3.33;;;0.98;;
38865;SDS011;62686;48.984;8.394;2022-09-09T14:46:28;2.63;;;1.30;;
38865;SDS011;62686;48.984;8.394;2022-09-09T14:48:59;7.95;;;1.52;;
38865;SDS011;62686;48.984;8.394;2022-09-09T14:51:28;6.13;;;1.58;;
38865;SDS011;62686;48.984;8.394;2022-09-09T14:53:57;5.72;;;1.30;;
38865;SDS011;62686;48.984;8.394;2022-09-09T14:56:29;6.82;;;1.80;;
38865;SDS011;62686;48.984;8.394;2022-09-09T14:59:00;4.78;;;1.48;;
38865;SDS011;62686;48.984;8.394;2022-09-09T15:01:29;5.78;;;1.67;;
38865;SDS011;62686;48.984;8.394;2022-09-09T15:04:02;2.63;;;1.20;;
38865;SDS011;62686;48.984;8.394;2022-09-09T15:06:33;2.92;;;1.20;;
38865;SDS011;62686;48.984;8.394;2022-09-09T15:09:02;4.25;;;1.25;;
38865;SDS011;62686;48.984;8.394;2022-09-09T15:11:32;7.53;;;1.25;;
38865;SDS011;62686;48.984;8.394;2022-09-09T15:14:04;3.20;;;1.17;;
38865;SDS011;62686;48.984;8.394;2022-09-09T15:16:33;3.25;;;1.02;;
38865;SDS011;62686;48.984;8.394;2022-09-09T15:19:04;6.05;;;1.50;;
38865;SDS011;62686;48.984;8.394;2022-09-09T15:21:33;10.93;;;1.70;;
38865;SDS011;62686;48.984;8.394;2022-09-09T15:24:02;2.28;;;1.08;;
38865;SDS011;62686;48.984;8.394;2022-09-09T15:26:33;1.58;;;0.82;;
38865;SDS011;62686;48.984;8.394;2022-09-09T15:29:05;2.75;;;1.23;;
38865;SDS011;62686;48.984;8.394;2022-09-09T15:31:33;6.97;;;1.30;;
38865;SDS011;62686;48.984;8.394;2022-09-09T15:34:06;7.43;;;1.20;;
38865;SDS011;62686;48.984;8.394;2022-09-09T15:36:36;5.40;;;1.33;;
38865;SDS011;62686;48.984;8.394;2022-09-09T15:39:06;4.60;;;1.10;;